Time;durP1;ratioP1;P1;durP2;ratioP2;P2;SDS_P1;SDS_P2;PMS_P1;PMS_P2;Temp;Humidity;BMP_temperature;BMP_pressure;BME280_temperature;BME280_humidity;BME280_pressure;Samples;Min_cycle;Max_cycle;Signal;HPM_P1;HPM_P2
2022/12/15 00:39:58;;;;;;;24.17;14.02;;;-1.20;99.90;;;;;;5099192;28;20490;-33
2022/12/15 00:42:27;;;;;;;25.65;13.93;;;-1.20;99.90;;;;;;5099101;27;20058;-35
2022/12/15 00:44:53;;;;;;;25.83;13.20;;;-1.20;99.90;;;;;;5098451;27;20046;-32
2022/12/15 00:47:19;;;;;;;23.95;14.30;;;-1.20;99.90;;;;;;5102198;27;20028;-34
2022/12/15 01:22:40;;;;;;;28.85;14.73;;;-1.30;99.90;;;;;;5097887;28;20561;-34
2022/12/15 01:25:07;;;;;;;28.65;13.40;;;-1.30;99.90;;;;;;5103075;27;20027;-31
2022/12/15 01:27:34;;;;;;;23.20;12.95;;;-1.30;99.90;;;;;;5099348;27;20039;-37
2022/12/15 01:29:59;;;;;;;21.55;12.68;;;-1.30;99.90;;;;;;5101676;27;20034;-33
2022/12/15 01:32:26;;;;;;;24.70;13.60;;;-1.30;99.90;;;;;;5098770;28;20447;-30
2022/12/15 01:34:52;;;;;;;23.42;11.52;;;-1.30;99.90;;;;;;5102175;28;20024;-33
2022/12/15 01:37:18;;;;;;;32.78;14.98;;;-1.30;99.90;;;;;;5098055;28;20034;-32
2022/12/15 01:42:27;;;;;;;29.00;14.13;;;-1.40;99.90;;;;;;5098322;27;20503;-33
2022/12/15 01:45:13;;;;;;;24.52;13.98;;;-1.40;99.90;;;;;;5102390;28;20035;-31
2022/12/15 01:47:39;;;;;;;26.23;13.60;;;-1.50;99.90;;;;;;5102894;28;20044;-34
2022/12/15 01:50:12;;;;;;;26.65;13.82;;;-1.50;99.90;;;;;;5100295;27;20584;-30
2022/12/15 01:52:38;;;;;;;27.25;13.35;;;-1.50;99.90;;;;;;5093836;28;20035;-33
2022/12/15 01:55:04;;;;;;;26.02;14.25;;;-1.60;99.90;;;;;;5101381;28;20083;-34
2022/12/15 01:57:31;;;;;;;26.77;11.80;;;-1.60;99.90;;;;;;5102723;28;20175;-30
2022/12/15 02:00:00;;;;;;;34.17;16.45;;;-1.60;99.90;;;;;;5096147;28;20019;-33
2022/12/15 02:02:29;;;;;;;30.08;15.50;;;-1.70;99.90;;;;;;5096142;28;20092;-33
2022/12/15 02:04:58;;;;;;;28.98;15.65;;;-1.70;99.90;;;;;;5097355;28;20869;-35
2022/12/15 02:07:24;;;;;;;23.00;11.85;;;-1.70;99.90;;;;;;5100424;28;20054;-36
2022/12/15 02:09:52;;;;;;;31.73;16.10;;;-1.70;99.90;;;;;;5102861;28;20371;-34
2022/12/15 02:13:08;;;;;;;32.85;16.25;;;-1.70;99.90;;;;;;5100347;28;20027;-35
2022/12/15 02:15:39;;;;;;;22.23;12.63;;;-1.70;99.90;;;;;;5034501;28;20048;-35
2022/12/15 02:18:11;;;;;;;31.20;15.52;;;-1.70;99.90;;;;;;5096336;28;20493;-35
2022/12/15 02:21:14;;;;;;;27.65;14.63;;;-1.70;99.90;;;;;;5098400;28;20707;-33
2022/12/15 02:24:02;;;;;;;30.85;15.73;;;-1.60;99.90;;;;;;5097666;28;20031;-33
2022/12/15 02:26:33;;;;;;;29.08;15.35;;;-1.70;99.90;;;;;;5102120;28;20024;-34
2022/12/15 02:29:29;;;;;;;32.38;16.23;;;-1.70;99.90;;;;;;5094151;28;20028;-34
2022/12/15 02:32:02;;;;;;;33.47;15.75;;;-1.70;99.90;;;;;;5093515;28;20046;-33
2022/12/15 02:34:57;;;;;;;30.48;16.63;;;-1.70;99.90;;;;;;5076907;22;20081;-77
2022/12/15 02:37:34;;;;;;;24.13;13.13;;;-1.80;99.90;;;;;;4979703;28;20149;-77
2022/12/15 02:40:01;;;;;;;25.53;12.33;;;-1.90;99.90;;;;;;4998685;28;20029;-77
2022/12/15 02:42:29;;;;;;;36.85;16.00;;;-1.90;99.90;;;;;;4995442;28;20483;-77
2022/12/15 02:45:00;;;;;;;30.65;12.63;;;-1.90;99.90;;;;;;5010484;28;20025;-77
2022/12/15 02:47:48;;;;;;;26.90;13.75;;;-1.90;99.90;;;;;;5013669;28;20041;-77
2022/12/15 02:50:41;;;;;;;31.52;14.80;;;-2.00;99.90;;;;;;5013548;28;20677;-77
2022/12/15 02:53:32;;;;;;;26.98;14.07;;;-2.00;99.90;;;;;;5013304;28;20025;-78
2022/12/15 02:56:19;;;;;;;31.58;15.57;;;-2.00;99.90;;;;;;5012180;28;20041;-77
2022/12/15 02:59:13;;;;;;;32.25;15.10;;;-2.00;99.90;;;;;;5014101;28;20026;-78
2022/12/15 03:02:07;;;;;;;31.77;13.73;;;-2.00;99.90;;;;;;5013036;28;20088;-78
2022/12/15 03:04:33;;;;;;;24.70;12.38;;;-2.00;99.90;;;;;;5013337;28;20038;-77
2022/12/15 03:07:05;;;;;;;26.55;12.23;;;-2.00;99.90;;;;;;4996026;28;20030;-77
2022/12/15 03:09:31;;;;;;;28.10;13.30;;;-2.00;99.90;;;;;;5002291;28;20106;-78
2022/12/15 03:11:57;;;;;;;31.15;14.27;;;-2.00;99.90;;;;;;5017545;28;20646;-78
2022/12/15 03:14:24;;;;;;;27.95;15.73;;;-2.10;99.90;;;;;;4995225;28;20026;-78
2022/12/15 03:16:50;;;;;;;41.40;17.80;;;-2.10;99.90;;;;;;5010039;28;20168;-78
2022/12/15 03:19:16;;;;;;;32.00;16.45;;;-2.10;99.90;;;;;;5013930;28;20148;-79
2022/12/15 03:21:41;;;;;;;35.28;16.00;;;-2.10;99.90;;;;;;5013389;28;20069;-79
2022/12/15 03:24:07;;;;;;;35.30;18.00;;;-2.10;99.90;;;;;;5016862;28;20104;-78
2022/12/15 03:26:33;;;;;;;27.50;14.32;;;-2.10;99.90;;;;;;5017491;28;20136;-78
2022/12/15 03:28:59;;;;;;;29.70;16.35;;;-2.20;99.90;;;;;;5020409;28;20099;-80
2022/12/15 03:31:25;;;;;;;36.38;17.00;;;-2.20;99.90;;;;;;5015543;28;20400;-78
2022/12/15 03:33:50;;;;;;;34.47;17.10;;;-2.20;99.90;;;;;;5018895;28;20040;-78
2022/12/15 03:36:16;;;;;;;34.30;14.20;;;-2.20;99.90;;;;;;5014570;28;20010;-78
2022/12/15 03:38:42;;;;;;;29.17;14.48;;;-2.20;99.90;;;;;;5019056;28;20022;-78
2022/12/15 03:41:07;;;;;;;27.13;14.23;;;-2.20;99.90;;;;;;5014037;28;20060;-79
2022/12/15 03:43:33;;;;;;;28.77;15.25;;;-2.20;99.90;;;;;;5015857;28;20037;-78
2022/12/15 03:45:58;;;;;;;24.70;13.32;;;-2.20;99.90;;;;;;5014677;28;20064;-78
2022/12/15 03:48:24;;;;;;;30.13;14.57;;;-2.20;99.90;;;;;;5012500;28;20045;-78
2022/12/15 03:50:49;;;;;;;30.85;13.75;;;-2.20;99.90;;;;;;5013267;28;20120;-78
2022/12/15 03:53:15;;;;;;;34.70;15.57;;;-2.20;99.90;;;;;;5015151;28;20038;-78
2022/12/15 03:55:41;;;;;;;33.50;14.40;;;-2.20;99.90;;;;;;4994052;28;20046;-78
2022/12/15 03:58:06;;;;;;;27.25;13.60;;;-2.20;99.90;;;;;;5016687;28;20061;-78
2022/12/15 04:00:32;;;;;;;34.92;15.50;;;-2.20;99.90;;;;;;5004924;28;20041;-78
2022/12/15 04:02:58;;;;;;;28.63;14.15;;;-2.20;99.90;;;;;;5010812;28;20034;-78
2022/12/15 04:05:29;;;;;;;28.05;13.38;;;-2.20;99.90;;;;;;4996567;28;20041;-78
2022/12/15 04:07:57;;;;;;;30.65;15.32;;;-2.20;99.90;;;;;;5008493;28;20029;-78
2022/12/15 04:10:24;;;;;;;30.67;15.27;;;-2.20;99.90;;;;;;5017712;28;20563;-78
2022/12/15 04:13:00;;;;;;;29.80;14.63;;;-2.10;99.90;;;;;;5011909;28;20304;-78
2022/12/15 04:15:27;;;;;;;30.15;13.93;;;-2.10;99.90;;;;;;5012556;28;20092;-78
2022/12/15 04:17:53;;;;;;;29.65;14.55;;;-2.20;99.90;;;;;;5014371;28;20089;-79
2022/12/15 04:20:19;;;;;;;37.10;15.88;;;-2.20;99.90;;;;;;5015547;28;20034;-77
2022/12/15 04:22:47;;;;;;;32.97;15.77;;;-2.10;99.90;;;;;;5016604;28;20477;-78
2022/12/15 05:33:56;;;;;;;26.40;15.38;;;-2.20;99.90;;;;;;5008623;28;20069;-79
2022/12/15 05:36:22;;;;;;;35.00;18.60;;;-2.20;99.90;;;;;;5008883;28;20671;-78
2022/12/15 05:38:52;;;;;;;36.35;16.95;;;-2.30;99.90;;;;;;5012325;28;20089;-78
2022/12/15 05:41:19;;;;;;;29.45;14.52;;;-2.20;99.90;;;;;;5009488;28;20061;-78
2022/12/15 05:43:45;;;;;;;30.17;16.65;;;-2.20;99.90;;;;;;5008247;28;20374;-79
2022/12/15 05:46:11;;;;;;;33.38;15.63;;;-2.30;99.90;;;;;;4989592;28;20026;-78
2022/12/15 05:48:36;;;;;;;33.67;17.48;;;-2.20;99.90;;;;;;5009698;28;20038;-79
2022/12/15 05:51:09;;;;;;;37.17;18.17;;;-2.30;99.90;;;;;;5007584;28;20045;-78
2022/12/15 05:53:35;;;;;;;36.33;17.02;;;-2.30;99.90;;;;;;5011433;28;20052;-78
2022/12/15 05:56:06;;;;;;;34.20;16.65;;;-2.20;99.90;;;;;;4995409;28;20052;-78
2022/12/15 05:58:32;;;;;;;38.17;16.88;;;-2.20;99.90;;;;;;4987539;28;20124;-78
2022/12/15 06:01:06;;;;;;;33.75;16.73;;;-2.20;99.90;;;;;;5009626;28;20034;-77
2022/12/15 06:03:32;;;;;;;37.45;16.73;;;-2.20;99.90;;;;;;5007673;28;20026;-78
2022/12/15 06:05:59;;;;;;;34.58;16.05;;;-2.20;99.90;;;;;;5007543;28;20861;-78
2022/12/15 06:08:27;;;;;;;37.97;15.43;;;-2.20;99.90;;;;;;5009972;28;20034;-78
2022/12/15 06:10:53;;;;;;;37.00;16.20;;;-2.20;99.90;;;;;;5010834;28;20029;-78
2022/12/15 06:13:20;;;;;;;39.75;16.17;;;-2.20;99.90;;;;;;4995547;28;20121;-78
2022/12/15 06:15:56;;;;;;;28.90;15.18;;;-2.20;99.90;;;;;;5011173;28;20022;-79
2022/12/15 06:18:22;;;;;;;36.80;17.95;;;-2.30;99.90;;;;;;5010381;28;20025;-78
2022/12/15 06:21:02;;;;;;;40.45;18.13;;;-2.20;99.90;;;;;;5007471;28;20037;-77
2022/12/15 06:23:28;;;;;;;36.08;16.63;;;-2.20;99.90;;;;;;5010167;28;20037;-77
2022/12/15 06:25:54;;;;;;;36.55;16.48;;;-2.20;99.90;;;;;;4992458;28;20062;-78
2022/12/15 06:28:22;;;;;;;36.28;16.42;;;-2.20;99.90;;;;;;4989271;28;20033;-77
2022/12/15 06:30:52;;;;;;;30.83;15.93;;;-2.20;99.90;;;;;;5008190;28;20116;-78
2022/12/15 06:33:22;;;;;;;42.97;18.45;;;-2.20;99.90;;;;;;4996141;28;20578;-78
2022/12/15 06:35:48;;;;;;;34.33;16.60;;;-2.20;99.90;;;;;;5013455;28;20489;-78
2022/12/15 06:38:14;;;;;;;33.13;15.32;;;-2.20;99.90;;;;;;4995775;28;20096;-78
2022/12/15 06:41:03;;;;;;;37.45;16.35;;;-2.20;99.90;;;;;;5011758;28;20034;-77
2022/12/15 06:43:30;;;;;;;41.75;17.55;;;-2.20;99.90;;;;;;5004824;28;20044;-79
2022/12/15 06:45:56;;;;;;;38.67;17.42;;;-2.20;99.90;;;;;;4995403;28;20093;-78
2022/12/15 06:48:22;;;;;;;33.35;15.65;;;-2.20;99.90;;;;;;5005467;28;20021;-78
2022/12/15 06:50:49;;;;;;;25.20;13.73;;;-2.20;99.90;;;;;;5014456;28;20037;-78
2022/12/15 06:53:18;;;;;;;34.42;16.38;;;-2.20;99.90;;;;;;5009095;28;20038;-78
2022/12/15 06:55:44;;;;;;;32.50;15.77;;;-2.20;99.90;;;;;;5011900;28;20041;-78
2022/12/15 06:58:11;;;;;;;35.65;16.58;;;-2.20;99.90;;;;;;5008631;28;20044;-78
2022/12/15 07:00:38;;;;;;;32.90;16.38;;;-2.10;99.90;;;;;;5011631;28;20040;-79
2022/12/15 07:03:08;;;;;;;32.58;16.52;;;-2.10;99.90;;;;;;4992164;28;20034;-78
2022/12/15 07:05:34;;;;;;;36.92;17.02;;;-2.10;99.90;;;;;;5012461;28;20049;-78
2022/12/15 07:08:00;;;;;;;39.83;18.42;;;-2.10;99.90;;;;;;5011191;28;20048;-79
2022/12/15 07:10:25;;;;;;;38.90;18.67;;;-2.10;99.90;;;;;;5010475;28;20025;-78
2022/12/15 07:12:51;;;;;;;38.72;17.98;;;-2.10;99.90;;;;;;5012027;28;20049;-79
2022/12/15 07:15:16;;;;;;;30.70;15.82;;;-2.10;99.90;;;;;;5009912;28;20034;-79
2022/12/15 07:17:42;;;;;;;29.70;15.38;;;-2.10;99.90;;;;;;5009071;28;20054;-78
2022/12/15 07:20:08;;;;;;;24.73;13.50;;;-2.10;99.90;;;;;;5014905;28;20029;-78
2022/12/15 07:22:34;;;;;;;35.95;17.48;;;-2.10;99.90;;;;;;5011625;28;20134;-79
2022/12/15 07:24:59;;;;;;;33.35;17.50;;;-2.10;99.90;;;;;;5012645;28;21617;-78
2022/12/15 07:27:25;;;;;;;31.98;16.92;;;-2.10;99.90;;;;;;5011707;28;20053;-78
2022/12/15 07:29:51;;;;;;;34.38;16.35;;;-2.10;99.90;;;;;;5023896;28;20562;-78
2022/12/15 07:32:17;;;;;;;33.45;17.10;;;-2.10;99.90;;;;;;5014521;28;20065;-78
2022/12/15 07:34:43;;;;;;;29.33;14.45;;;-2.00;99.90;;;;;;5017557;28;20480;-79
2022/12/15 07:37:09;;;;;;;25.90;12.98;;;-2.10;99.90;;;;;;5010483;28;20033;-78
2022/12/15 07:39:35;;;;;;;39.17;17.33;;;-2.00;99.90;;;;;;5018712;28;20120;-79
2022/12/15 07:42:01;;;;;;;30.17;15.43;;;-2.00;99.90;;;;;;5020315;28;20524;-80
2022/12/15 07:44:27;;;;;;;32.05;17.40;;;-2.00;99.90;;;;;;5009878;28;20065;-78
2022/12/15 07:46:53;;;;;;;34.85;17.10;;;-2.00;99.90;;;;;;5013042;28;20022;-78
2022/12/15 07:49:19;;;;;;;30.30;15.02;;;-2.00;99.90;;;;;;5013039;28;20091;-79
2022/12/15 07:51:45;;;;;;;36.35;16.77;;;-2.00;99.90;;;;;;5016256;28;20034;-78
2022/12/15 07:54:11;;;;;;;35.47;16.75;;;-2.00;99.90;;;;;;5014874;28;20137;-78
2022/12/15 07:56:38;;;;;;;37.28;17.10;;;-2.00;99.90;;;;;;5013295;28;20046;-78
2022/12/15 07:59:05;;;;;;;36.17;15.95;;;-2.00;99.90;;;;;;5016590;28;20176;-78
2022/12/15 08:01:30;;;;;;;42.78;18.73;;;-2.00;99.90;;;;;;5013417;28;20041;-79
2022/12/15 08:03:56;;;;;;;39.53;16.88;;;-2.00;99.90;;;;;;5021304;28;20038;-78
2022/12/15 08:06:22;;;;;;;36.92;15.63;;;-2.00;99.90;;;;;;5012510;28;20096;-79
2022/12/15 08:08:47;;;;;;;38.53;17.23;;;-1.90;99.90;;;;;;5021815;28;20044;-79
2022/12/15 08:11:14;;;;;;;33.67;15.88;;;-1.90;99.90;;;;;;5014633;28;20082;-79
2022/12/15 08:13:41;;;;;;;33.70;16.52;;;-1.90;99.90;;;;;;5016699;28;20050;-78
2022/12/15 08:16:06;;;;;;;28.75;15.05;;;-1.90;99.90;;;;;;5012810;28;20116;-78
2022/12/15 08:18:32;;;;;;;39.92;15.77;;;-1.80;99.90;;;;;;5015280;28;20128;-78
2022/12/15 08:21:03;;;;;;;38.05;16.52;;;-1.90;99.90;;;;;;5012103;28;20033;-78
2022/12/15 08:23:30;;;;;;;32.40;17.40;;;-1.80;99.90;;;;;;5010680;28;20053;-78
2022/12/15 08:26:06;;;;;;;35.25;16.58;;;-1.80;99.90;;;;;;5004783;28;20033;-78
2022/12/15 08:28:35;;;;;;;31.48;15.80;;;-1.80;99.90;;;;;;5007543;28;20034;-78
2022/12/15 08:31:06;;;;;;;29.52;15.25;;;-1.80;99.90;;;;;;5019478;28;20045;-79
2022/12/15 08:33:32;;;;;;;31.50;15.98;;;-1.80;99.90;;;;;;4990175;28;21341;-79
2022/12/15 08:35:59;;;;;;;33.60;16.13;;;-1.80;99.90;;;;;;5016086;28;20046;-79
2022/12/15 08:38:25;;;;;;;29.47;14.27;;;-1.80;99.90;;;;;;5013793;28;20038;-79
2022/12/15 08:40:51;;;;;;;33.58;14.93;;;-1.80;99.90;;;;;;5010135;28;20021;-79
2022/12/15 08:43:16;;;;;;;30.00;14.85;;;-1.70;99.90;;;;;;5007632;28;20026;-78
2022/12/15 08:45:42;;;;;;;25.35;13.38;;;-1.80;99.90;;;;;;5011006;28;20018;-79
2022/12/15 08:48:08;;;;;;;26.10;13.70;;;-1.70;99.90;;;;;;5013912;28;20065;-79
2022/12/15 08:50:33;;;;;;;25.63;13.02;;;-1.70;99.90;;;;;;5010078;28;20064;-79
2022/12/15 08:52:59;;;;;;;30.45;14.35;;;-1.70;99.90;;;;;;5009636;28;20141;-78
2022/12/15 08:55:24;;;;;;;36.17;15.50;;;-1.60;99.90;;;;;;5005485;28;20034;-79
2022/12/15 08:57:50;;;;;;;38.22;16.40;;;-1.60;99.90;;;;;;5005705;28;20033;-78
2022/12/15 09:00:17;;;;;;;41.67;18.60;;;-1.60;99.90;;;;;;5013297;28;20872;-79
2022/12/15 09:02:42;;;;;;;29.48;15.90;;;-1.50;99.90;;;;;;5010333;28;20485;-79
2022/12/15 09:05:08;;;;;;;31.80;16.27;;;-1.50;99.90;;;;;;5012840;28;20042;-79
2022/12/15 09:07:34;;;;;;;37.50;17.23;;;-1.50;99.90;;;;;;4996570;28;20041;-79
2022/12/15 09:10:00;;;;;;;36.40;16.30;;;-1.50;99.90;;;;;;5012592;28;20025;-76
2022/12/15 09:12:26;;;;;;;38.67;18.55;;;-1.50;99.90;;;;;;5013724;28;20776;-77
2022/12/15 09:14:51;;;;;;;41.22;20.83;;;-1.50;99.90;;;;;;5011839;28;20069;-76
2022/12/15 09:17:17;;;;;;;42.45;18.77;;;-1.50;99.90;;;;;;4989384;28;20092;-77
2022/12/15 09:19:43;;;;;;;37.45;17.95;;;-1.50;99.90;;;;;;5012227;28;20505;-76
2022/12/15 09:22:08;;;;;;;37.80;18.55;;;-1.50;99.90;;;;;;5012945;28;20022;-77
2022/12/15 09:24:34;;;;;;;37.15;19.13;;;-1.50;99.90;;;;;;5014613;28;20108;-77
2022/12/15 09:26:59;;;;;;;39.50;18.17;;;-1.40;99.90;;;;;;5014558;28;20026;-77
2022/12/15 09:29:25;;;;;;;41.83;19.88;;;-1.40;99.90;;;;;;4998157;28;20504;-78
2022/12/15 09:31:51;;;;;;;42.30;19.48;;;-1.40;99.90;;;;;;5011185;28;20058;-77
2022/12/15 09:34:16;;;;;;;36.80;18.27;;;-1.40;99.90;;;;;;5014154;28;20058;-78
2022/12/15 09:36:42;;;;;;;38.25;17.58;;;-1.40;99.90;;;;;;5013613;28;20033;-77
2022/12/15 09:39:10;;;;;;;40.58;18.02;;;-1.30;99.90;;;;;;5000160;28;20545;-77
2022/12/15 09:41:38;;;;;;;36.22;18.63;;;-1.30;99.90;;;;;;5014769;28;20040;-77
2022/12/15 09:44:05;;;;;;;38.00;17.83;;;-1.30;99.90;;;;;;5012327;28;20021;-77
2022/12/15 09:47:19;;;;;;;33.72;16.58;;;-1.30;99.90;;;;;;5012974;28;20025;-77
2022/12/15 09:49:50;;;;;;;35.67;18.95;;;-1.30;99.90;;;;;;5003651;28;20057;-78
2022/12/15 09:52:19;;;;;;;35.03;17.55;;;-1.30;99.90;;;;;;5011627;28;20052;-78
2022/12/15 09:54:45;;;;;;;40.90;17.45;;;-1.30;99.90;;;;;;5012242;28;20455;-78
2022/12/15 09:57:32;;;;;;;39.03;18.10;;;-1.20;99.90;;;;;;5013611;28;20034;-79
2022/12/15 10:00:01;;;;;;;36.95;18.13;;;-1.20;99.90;;;;;;4989197;28;20044;-79
2022/12/15 10:02:40;;;;;;;38.03;17.90;;;-1.30;99.90;;;;;;5006881;28;20063;-79
2022/12/15 10:05:20;;;;;;;34.97;18.30;;;-1.20;99.90;;;;;;4992803;28;20040;-79
2022/12/15 10:07:46;;;;;;;36.92;17.13;;;-1.20;99.90;;;;;;5010893;28;20064;-79
2022/12/15 10:10:22;;;;;;;38.97;18.30;;;-1.20;99.90;;;;;;5012519;28;20044;-79
2022/12/15 10:12:52;;;;;;;39.25;19.83;;;-1.20;99.90;;;;;;4997166;28;20097;-78
2022/12/15 10:15:28;;;;;;;47.55;21.05;;;-1.20;99.90;;;;;;5012464;28;20067;-79
2022/12/15 10:18:19;;;;;;;35.70;17.10;;;-1.20;99.90;;;;;;5010975;28;20036;-79
2022/12/15 10:20:45;;;;;;;34.55;16.73;;;-1.20;99.90;;;;;;5007413;28;20054;-79
2022/12/15 10:23:16;;;;;;;36.45;17.73;;;-1.20;99.90;;;;;;4992996;28;20137;-79
2022/12/15 10:25:53;;;;;;;32.47;16.63;;;-1.10;99.90;;;;;;5012723;28;20030;-79
2022/12/15 10:28:48;;;;;;;37.25;17.42;;;-1.10;99.90;;;;;;5013438;28;20069;-79
2022/12/15 10:31:27;;;;;;;36.63;17.38;;;-1.10;99.90;;;;;;4991120;28;20034;-79
2022/12/15 10:34:00;;;;;;;33.88;17.20;;;-1.10;99.90;;;;;;5013803;28;20083;-78
2022/12/15 10:36:26;;;;;;;35.17;16.23;;;-1.10;99.90;;;;;;5005132;28;20520;-79
2022/12/15 10:38:51;;;;;;;35.33;16.65;;;-1.10;99.90;;;;;;5011037;28;20026;-79
2022/12/15 10:41:20;;;;;;;33.05;16.17;;;-1.00;99.90;;;;;;5009170;28;20033;-79
2022/12/15 10:43:49;;;;;;;37.50;17.63;;;-1.00;99.90;;;;;;5012770;28;20041;-79
2022/12/15 10:46:24;;;;;;;41.78;19.10;;;-1.00;99.90;;;;;;5012343;28;20100;-79
2022/12/15 10:48:56;;;;;;;33.65;17.73;;;-1.00;99.90;;;;;;5014709;28;20148;-79
2022/12/15 10:51:41;;;;;;;44.17;21.30;;;-1.00;99.90;;;;;;5009653;28;20080;-79
2022/12/15 10:54:14;;;;;;;44.15;20.80;;;-1.00;99.90;;;;;;5009885;28;20045;-79
2022/12/15 10:56:57;;;;;;;41.13;19.52;;;-1.00;99.90;;;;;;5011505;28;20030;-79
2022/12/15 10:59:37;;;;;;;46.70;21.13;;;-1.00;99.90;;;;;;5010497;28;20049;-80
2022/12/15 11:02:25;;;;;;;41.53;19.10;;;-1.00;99.90;;;;;;5013767;28;20049;-79
2022/12/15 11:05:16;;;;;;;42.05;18.75;;;-1.00;99.90;;;;;;4994361;28;20042;-79
2022/12/15 11:07:53;;;;;;;38.90;19.15;;;-1.00;99.90;;;;;;5009332;28;20038;-80
2022/12/15 11:12:50;;;;;;;44.10;22.35;;;-1.00;99.90;;;;;;5003553;28;20025;-79
2022/12/15 11:13:19;;;;;;;43.15;19.10;;;-1.00;99.90;;;;;;5008936;28;20049;-80
2022/12/15 11:15:45;;;;;;;;;;;-1.10;99.90;;;;;;5014885;28;20026;-80
2022/12/15 11:18:41;;;;;;;37.00;17.92;;;-1.00;99.90;;;;;;4996431;28;19910;-79
2022/12/15 11:21:23;;;;;;;41.22;17.83;;;-1.00;99.90;;;;;;5000734;28;20750;-79
2022/12/15 11:23:51;;;;;;;38.80;18.23;;;-1.00;99.90;;;;;;5014268;28;20030;-79
2022/12/15 11:26:32;;;;;;;31.45;16.55;;;-1.00;99.90;;;;;;4997947;28;20033;-79
2022/12/15 11:29:17;;;;;;;43.63;19.98;;;-1.10;99.90;;;;;;5018271;28;20038;-79
2022/12/15 11:31:44;;;;;;;42.75;19.13;;;-1.10;99.90;;;;;;5013245;28;20038;-80
2022/12/15 11:34:16;;;;;;;51.75;19.88;;;-1.10;99.90;;;;;;5015184;28;20050;-80
2022/12/15 11:37:00;;;;;;;40.78;20.13;;;-1.10;99.90;;;;;;5021403;28;20029;-79
2022/12/15 11:39:32;;;;;;;44.78;20.27;;;-1.20;99.90;;;;;;4993889;28;20687;-79
2022/12/15 11:42:25;;;;;;;40.90;19.13;;;-1.10;99.90;;;;;;5021395;28;20041;-80
2022/12/15 11:44:51;;;;;;;40.47;19.70;;;-1.10;99.90;;;;;;4994350;28;20076;-79
2022/12/15 11:47:41;;;;;;;43.67;20.02;;;-1.10;99.90;;;;;;4999503;28;20673;-79
2022/12/15 11:50:30;;;;;;;43.33;20.92;;;-1.10;99.90;;;;;;5014259;28;20052;-79
2022/12/15 11:53:20;;;;;;;44.78;22.52;;;-1.10;99.90;;;;;;5020103;28;20041;-79
2022/12/15 11:56:03;;;;;;;35.67;17.65;;;-1.10;99.90;;;;;;5012565;28;20107;-80
2022/12/15 11:58:35;;;;;;;46.63;19.75;;;-1.10;99.90;;;;;;4998852;28;20022;-79
2022/12/15 12:01:21;;;;;;;44.40;19.30;;;-1.10;99.90;;;;;;5013248;28;20056;-80
2022/12/15 12:03:55;;;;;;;43.47;18.40;;;-1.10;99.90;;;;;;5007767;28;20081;-79
2022/12/15 12:06:46;;;;;;;53.65;22.48;;;-1.10;99.90;;;;;;5014550;28;20037;-79
2022/12/15 12:09:35;;;;;;;53.28;22.45;;;-1.20;99.90;;;;;;5016675;28;20060;-79
2022/12/15 12:12:15;;;;;;;55.35;24.77;;;-1.20;99.90;;;;;;5022341;28;20095;-79
2022/12/15 12:14:51;;;;;;;51.45;21.95;;;-1.20;99.90;;;;;;5006988;28;20065;-80
2022/12/15 12:17:52;;;;;;;60.20;24.98;;;-1.20;99.90;;;;;;5010603;28;20057;-80
2022/12/15 12:20:21;;;;;;;52.28;24.25;;;-1.20;99.90;;;;;;5014055;28;20041;-79
2022/12/15 12:22:56;;;;;;;54.15;22.75;;;-1.20;99.90;;;;;;5015860;28;20041;-80
2022/12/15 12:25:24;;;;;;;61.75;29.20;;;-1.20;99.90;;;;;;5012808;28;20124;-80
2022/12/15 12:28:04;;;;;;;54.92;24.88;;;-1.30;99.90;;;;;;5013597;28;20445;-79
2022/12/15 12:30:39;;;;;;;43.28;20.27;;;-1.30;99.90;;;;;;5006836;28;20385;-80
2022/12/15 12:33:07;;;;;;;60.45;25.33;;;-1.20;99.90;;;;;;5013306;28;20053;-80
2022/12/15 12:35:48;;;;;;;53.95;23.83;;;-1.20;99.90;;;;;;4996238;28;20085;-80
2022/12/15 12:38:19;;;;;;;61.97;25.75;;;-1.30;99.90;;;;;;5011176;28;20044;-79
2022/12/15 12:40:53;;;;;;;60.33;26.30;;;-1.20;99.90;;;;;;5009178;28;20042;-79
2022/12/15 12:43:49;;;;;;;61.78;25.17;;;-1.30;99.90;;;;;;5016870;28;20049;-79
2022/12/15 12:46:27;;;;;;;55.30;23.48;;;-1.30;99.90;;;;;;5007492;28;20497;-79
2022/12/15 12:49:10;;;;;;;48.20;19.50;;;-1.30;99.90;;;;;;5013103;28;20026;-81
2022/12/15 12:51:39;;;;;;;47.75;19.90;;;-1.20;99.90;;;;;;4991403;28;20339;-79
2022/12/15 12:54:35;;;;;;;59.40;25.35;;;-1.20;99.90;;;;;;5011871;28;20044;-80
2022/12/15 12:57:32;;;;;;;50.90;20.77;;;-1.20;99.90;;;;;;5004863;28;20022;-79
2022/12/15 13:00:14;;;;;;;59.13;22.33;;;-1.20;99.90;;;;;;5013685;28;20030;-79
2022/12/15 13:02:45;;;;;;;52.83;24.05;;;-1.30;99.90;;;;;;5011749;28;20096;-80
2022/12/15 13:05:30;;;;;;;52.83;23.25;;;-1.30;99.90;;;;;;4993117;28;20026;-80
2022/12/15 13:08:17;;;;;;;52.67;22.63;;;-1.30;99.90;;;;;;5010387;28;20030;-79
2022/12/15 13:10:45;;;;;;;52.22;21.70;;;-1.30;99.90;;;;;;5008672;28;20036;-80
2022/12/15 13:13:32;;;;;;;55.70;23.65;;;-1.30;99.90;;;;;;5012198;28;20038;-78
2022/12/15 13:16:19;;;;;;;45.05;17.83;;;-1.20;99.90;;;;;;5013826;28;20046;-78
2022/12/15 13:19:06;;;;;;;45.22;20.00;;;-1.10;99.90;;;;;;5008854;28;20038;-78
2022/12/15 13:21:43;;;;;;;46.78;21.85;;;-1.10;99.90;;;;;;5012420;28;20044;-78
2022/12/15 13:24:45;;;;;;;53.08;22.73;;;-1.10;99.90;;;;;;5014065;28;20493;-78
2022/12/15 13:27:15;;;;;;;53.97;23.10;;;-1.10;99.90;;;;;;4984118;28;20045;-78
2022/12/15 13:30:21;;;;;;;53.78;23.67;;;-1.10;99.90;;;;;;5010292;28;20368;-78
2022/12/15 13:32:51;;;;;;;47.60;20.65;;;-1.10;99.90;;;;;;5008508;28;20145;-78
2022/12/15 13:35:33;;;;;;;49.97;23.15;;;-1.00;99.90;;;;;;5015891;28;20057;-78
2022/12/15 13:38:06;;;;;;;48.70;20.48;;;-1.00;99.90;;;;;;5017320;28;20060;-78
2022/12/15 13:40:49;;;;;;;49.95;20.80;;;-1.00;99.90;;;;;;5011158;28;20484;-78
2022/12/15 13:43:27;;;;;;;46.60;22.48;;;-1.00;99.90;;;;;;5013551;28;20046;-78
2022/12/15 13:46:13;;;;;;;56.40;25.27;;;-1.00;99.90;;;;;;5010050;28;20026;-77
2022/12/15 13:48:45;;;;;;;50.97;20.55;;;-1.00;99.90;;;;;;5021782;28;20735;-78
2022/12/15 13:51:20;;;;;;;59.15;24.15;;;-1.00;99.90;;;;;;5012801;28;20048;-78
2022/12/15 13:54:02;;;;;;;56.47;22.60;;;-1.00;99.90;;;;;;5013873;28;20049;-78
2022/12/15 13:56:40;;;;;;;55.20;24.17;;;-1.00;99.90;;;;;;5013867;28;20037;-77
2022/12/15 13:59:24;;;;;;;59.00;23.13;;;-1.00;99.90;;;;;;5010943;28;20048;-78
2022/12/15 14:01:51;;;;;;;57.10;24.00;;;-1.00;99.90;;;;;;5009747;28;20130;-78
2022/12/15 14:04:21;;;;;;;57.45;24.02;;;-1.00;99.90;;;;;;5000495;28;20786;-77
2022/12/15 14:07:00;;;;;;;59.30;24.73;;;-1.00;99.90;;;;;;5001339;28;20042;-78
2022/12/15 14:09:32;;;;;;;58.92;23.20;;;-1.00;99.90;;;;;;5012071;28;20105;-77
2022/12/15 14:12:00;;;;;;;59.22;23.55;;;-1.00;99.90;;;;;;5013683;28;20017;-77
2022/12/15 14:14:33;;;;;;;61.67;23.65;;;-1.00;99.90;;;;;;5012848;28;20121;-77
2022/12/15 14:17:01;;;;;;;58.67;25.88;;;-1.10;99.90;;;;;;5011294;28;20116;-77
2022/12/15 14:19:39;;;;;;;67.45;26.38;;;-1.10;99.90;;;;;;5007452;28;20394;-77
2022/12/15 14:22:20;;;;;;;65.38;26.75;;;-1.10;99.90;;;;;;5011081;28;20038;-77
2022/12/15 14:24:46;;;;;;;59.60;23.45;;;-1.10;99.90;;;;;;5009693;28;20286;-78
2022/12/15 14:27:26;;;;;;;56.85;21.63;;;-1.10;99.90;;;;;;5009586;28;20034;-77
2022/12/15 14:30:28;;;;;;;53.00;23.00;;;-1.10;99.90;;;;;;5008234;28;20034;-77
2022/12/15 14:33:05;;;;;;;42.20;20.58;;;-1.00;99.90;;;;;;5009808;28;20074;-76
2022/12/15 14:35:41;;;;;;;45.67;15.98;;;-1.00;99.90;;;;;;5012338;28;20053;-77
2022/12/15 14:38:12;;;;;;;41.88;18.05;;;-1.00;99.90;;;;;;5011427;28;20481;-76
2022/12/15 14:40:39;;;;;;;53.45;20.85;;;-0.90;99.90;;;;;;5016550;28;20045;-78
2022/12/15 14:43:12;;;;;;;39.35;17.83;;;-0.90;99.90;;;;;;5007034;28;20116;-77
2022/12/15 14:45:38;;;;;;;59.08;22.55;;;-0.90;99.90;;;;;;5011652;28;20057;-77
2022/12/15 14:48:08;;;;;;;38.58;16.83;;;-0.90;99.90;;;;;;5012816;28;20029;-77
2022/12/15 14:50:35;;;;;;;36.92;17.95;;;-0.90;99.90;;;;;;5009952;28;20153;-77
2022/12/15 14:53:16;;;;;;;42.78;19.13;;;-0.80;99.90;;;;;;5010908;28;20471;-77
2022/12/15 14:55:42;;;;;;;43.78;17.73;;;-0.80;99.90;;;;;;5011082;28;20038;-77
2022/12/15 14:58:30;;;;;;;41.10;18.50;;;-0.80;99.90;;;;;;5014348;28;20529;-77
2022/12/15 15:00:56;;;;;;;;;;;-0.80;99.90;;;;;;5014287;28;20042;-78
2022/12/15 15:03:33;;;;;;;39.95;19.33;;;-0.80;99.90;;;;;;5023113;28;20297;-77
2022/12/15 15:06:05;;;;;;;45.42;21.00;;;-0.80;99.90;;;;;;5019804;28;20034;-78
2022/12/15 15:08:34;;;;;;;49.53;20.75;;;-0.80;99.90;;;;;;5014823;28;20018;-77
2022/12/15 15:11:21;;;;;;;46.13;22.08;;;-0.80;99.90;;;;;;5013643;28;20061;-77
2022/12/15 15:13:46;;;;;;;55.42;22.58;;;-0.90;99.90;;;;;;5012845;28;20544;-76
2022/12/15 15:16:17;;;;;;;51.33;22.35;;;-0.80;99.90;;;;;;5006171;28;20042;-78
2022/12/15 15:18:47;;;;;;;50.08;21.98;;;-0.80;99.90;;;;;;5014128;28;20069;-78